createdAt,value
2022-12-16T00:01:07.716Z,19.9
2022-12-16T00:02:16.282Z,21.200001
2022-12-16T00:03:24.608Z,21.200001
2022-12-16T00:04:32.970Z,21.200001
2022-12-16T00:05:44.451Z,19.700001
2022-12-16T00:06:49.859Z,19.700001
2022-12-16T00:07:58.312Z,19.700001
2022-12-16T00:09:06.781Z,19
2022-12-16T00:10:15.150Z,19
2022-12-16T00:11:23.496Z,19
2022-12-16T00:12:32.074Z,22.9
2022-12-16T00:13:40.412Z,22.9
2022-12-16T00:14:48.781Z,22.9
2022-12-16T00:15:57.361Z,20.799999
2022-12-16T00:17:05.689Z,20.799999
2022-12-16T00:18:14.040Z,20.799999
2022-12-16T00:19:22.610Z,21.799999
2022-12-16T00:20:30.947Z,21.799999
2022-12-16T00:21:39.304Z,21.799999
2022-12-16T00:22:47.865Z,22
2022-12-16T00:23:56.251Z,22
2022-12-16T00:25:04.587Z,22
2022-12-16T00:26:13.146Z,23.9
2022-12-16T00:27:21.489Z,23.9
2022-12-16T00:28:29.844Z,23.9
2022-12-16T00:29:38.413Z,22.5
2022-12-16T00:30:46.804Z,22.5
2022-12-16T00:31:55.215Z,22.5
2022-12-16T00:33:03.724Z,23
2022-12-16T00:34:12.064Z,23
2022-12-16T00:35:20.415Z,23
2022-12-16T00:36:28.970Z,22.200001
2022-12-16T00:37:37.335Z,22.200001
2022-12-16T00:38:45.685Z,22.200001
2022-12-16T00:39:54.282Z,23.200001
2022-12-16T00:41:02.598Z,23.200001
2022-12-16T00:42:10.957Z,23.200001
2022-12-16T00:43:19.512Z,22.9
2022-12-16T00:44:27.881Z,22.9
2022-12-16T00:45:36.284Z,22.9
2022-12-16T00:46:44.789Z,21.200001
2022-12-16T00:47:53.163Z,21.200001
2022-12-16T00:49:01.506Z,21.200001
2022-12-16T00:50:10.061Z,21.4
2022-12-16T00:51:18.424Z,21.4
2022-12-16T00:52:26.780Z,21.4
2022-12-16T00:53:35.729Z,21.4
2022-12-16T00:54:43.694Z,21.4
2022-12-16T00:55:52.060Z,21.4
2022-12-16T00:57:00.590Z,22.200001
2022-12-16T00:58:08.946Z,22.200001
2022-12-16T00:59:17.297Z,22.200001
2022-12-16T01:00:25.855Z,22.5
2022-12-16T01:01:34.350Z,22.5
2022-12-16T01:02:42.732Z,22.5
2022-12-16T01:03:51.179Z,20.6
2022-12-16T01:04:59.472Z,20.6
2022-12-16T01:06:07.832Z,20.6
2022-12-16T01:07:16.394Z,20.1
2022-12-16T01:08:24.747Z,20.1
2022-12-16T01:09:33.092Z,20.1
2022-12-16T01:10:41.643Z,21.299999
2022-12-16T01:11:50.018Z,21.299999
2022-12-16T01:12:58.339Z,21.299999
2022-12-16T01:14:06.907Z,19.700001
2022-12-16T01:15:15.252Z,19.700001
2022-12-16T01:16:23.649Z,19.700001
2022-12-16T01:17:32.157Z,21.5
2022-12-16T01:18:40.539Z,21.5
2022-12-16T01:19:48.851Z,21.5
2022-12-16T01:20:57.415Z,21.5
2022-12-16T01:22:05.759Z,21.5
2022-12-16T01:23:14.158Z,21.5
2022-12-16T01:24:22.682Z,20.5
2022-12-16T01:25:31.045Z,20.5
2022-12-16T01:26:39.401Z,20.5
2022-12-16T01:27:47.986Z,20.5
2022-12-16T01:28:56.339Z,20.5
2022-12-16T01:30:04.686Z,20.5
2022-12-16T01:31:13.323Z,24
2022-12-16T01:32:21.593Z,24
2022-12-16T01:33:30.319Z,24
2022-12-16T01:34:38.538Z,22.9
2022-12-16T01:35:55.019Z,22.9
2022-12-16T01:36:55.289Z,22.9
2022-12-16T01:38:03.853Z,20.1
2022-12-16T01:39:12.215Z,20.1
2022-12-16T01:40:20.569Z,20.1
2022-12-16T01:41:29.143Z,22
2022-12-16T01:42:37.479Z,22
2022-12-16T01:43:45.845Z,22
2022-12-16T01:44:55.061Z,19.6
2022-12-16T01:46:02.777Z,19.6
2022-12-16T01:47:11.065Z,19.6
2022-12-16T01:48:19.648Z,24.1
2022-12-16T01:49:28.007Z,24.1
2022-12-16T01:50:36.354Z,24.1
2022-12-16T01:51:48.920Z,23.9
2022-12-16T01:52:53.291Z,23.9
2022-12-16T01:54:01.638Z,23.9
2022-12-16T01:55:10.185Z,24.799999
2022-12-16T01:56:18.541Z,24.799999
2022-12-16T01:57:26.928Z,24.799999
2022-12-16T01:58:35.471Z,20.1
2022-12-16T01:59:43.855Z,20.1
2022-12-16T02:00:52.206Z,20.1
2022-12-16T02:02:01.034Z,24.4
2022-12-16T02:03:09.109Z,24.4
2022-12-16T02:04:17.445Z,24.4
2022-12-16T02:05:25.998Z,22.200001
2022-12-16T02:06:34.345Z,22.200001
2022-12-16T02:07:42.711Z,22.200001
2022-12-16T02:08:51.262Z,24
2022-12-16T02:09:59.610Z,24
2022-12-16T02:11:07.961Z,24
2022-12-16T02:12:16.528Z,21.9
2022-12-16T02:13:24.875Z,21.9
2022-12-16T02:14:33.218Z,21.9
2022-12-16T02:15:41.800Z,22.200001
2022-12-16T02:16:50.226Z,22.200001
2022-12-16T02:17:58.486Z,22.200001
2022-12-16T02:19:07.058Z,24.6
2022-12-16T02:20:15.419Z,24.6
2022-12-16T02:21:23.767Z,24.6
2022-12-16T02:22:32.332Z,21.299999
2022-12-16T02:23:40.686Z,21.299999
2022-12-16T02:24:49.031Z,21.299999
2022-12-16T02:25:57.596Z,21.4
2022-12-16T02:27:05.942Z,21.4
2022-12-16T02:28:14.303Z,21.4
2022-12-16T02:29:22.882Z,22.6
2022-12-16T02:30:31.292Z,22.6
2022-12-16T02:31:39.606Z,22.6
2022-12-16T02:32:48.159Z,22.1
2022-12-16T02:33:56.501Z,22.1
2022-12-16T02:35:04.926Z,22.1
2022-12-16T02:36:13.424Z,23
2022-12-16T02:37:21.772Z,23
2022-12-16T02:38:30.123Z,23
2022-12-16T02:39:38.668Z,21.700001
2022-12-16T02:40:47.033Z,21.700001
2022-12-16T02:41:55.395Z,21.700001
2022-12-16T02:43:03.956Z,22.9
2022-12-16T02:44:12.311Z,22.9
2022-12-16T02:45:20.652Z,22.9
2022-12-16T02:46:29.220Z,21.6
2022-12-16T02:47:37.594Z,21.6
2022-12-16T02:48:45.915Z,21.6
2022-12-16T02:49:54.475Z,21.4
2022-12-16T02:51:02.850Z,21.4
2022-12-16T02:52:11.184Z,21.4
2022-12-16T02:53:19.744Z,21.1
2022-12-16T02:54:28.091Z,21.1
2022-12-16T02:55:36.453Z,21.1
2022-12-16T02:56:45.035Z,21.4
2022-12-16T02:57:53.390Z,21.4
2022-12-16T02:59:01.729Z,21.4
2022-12-16T03:00:10.285Z,22.6
2022-12-16T03:01:18.775Z,22.6
2022-12-16T03:02:27.144Z,22.6
2022-12-16T03:03:36.124Z,21.700001
2022-12-16T03:04:43.922Z,21.700001
2022-12-16T03:05:52.282Z,21.700001
2022-12-16T03:07:00.831Z,23.6
2022-12-16T03:08:09.198Z,23.6
2022-12-16T03:09:17.544Z,23.6
2022-12-16T03:10:26.105Z,23.200001
2022-12-16T03:11:34.441Z,23.200001
2022-12-16T03:12:42.801Z,23.200001
2022-12-16T03:13:51.356Z,24.700001
2022-12-16T03:14:59.721Z,24.700001
2022-12-16T03:16:08.067Z,24.700001
2022-12-16T03:17:16.628Z,23.4
2022-12-16T03:18:24.971Z,23.4
2022-12-16T03:19:33.358Z,23.4
2022-12-16T03:20:41.883Z,23.5
2022-12-16T03:21:50.236Z,23.5
2022-12-16T03:22:58.596Z,23.5
2022-12-16T03:24:07.152Z,24.299999
2022-12-16T03:25:15.513Z,24.299999
2022-12-16T03:26:23.868Z,24.299999
2022-12-16T03:27:32.433Z,24.200001
2022-12-16T03:28:40.759Z,24.200001
2022-12-16T03:29:49.104Z,24.200001
2022-12-16T03:30:57.704Z,23.299999
2022-12-16T03:32:06.009Z,23.299999
2022-12-16T03:33:14.370Z,23.299999
2022-12-16T03:34:22.939Z,24.200001
2022-12-16T03:35:31.416Z,24.200001
2022-12-16T03:36:39.627Z,24.200001
2022-12-16T03:37:48.207Z,24.4
2022-12-16T03:38:56.551Z,24.4
2022-12-16T03:40:04.920Z,24.4
2022-12-16T03:41:13.471Z,26.1
2022-12-16T03:42:21.817Z,26.1
2022-12-16T03:43:30.454Z,26.1
2022-12-16T03:44:38.746Z,25.1
2022-12-16T03:45:47.146Z,25.1
2022-12-16T03:46:55.425Z,25.1
2022-12-16T03:48:04.003Z,22.6
2022-12-16T03:49:12.345Z,22.6
2022-12-16T03:50:20.694Z,22.6
2022-12-16T03:51:29.281Z,27.6
2022-12-16T03:52:37.612Z,27.6
2022-12-16T03:53:45.961Z,27.6
2022-12-16T03:54:54.522Z,23.6
2022-12-16T03:56:02.859Z,23.6
2022-12-16T03:57:15.175Z,23.6
2022-12-16T03:58:19.775Z,24
2022-12-16T03:59:28.119Z,24
2022-12-16T04:00:36.491Z,24
2022-12-16T04:01:45.204Z,25.1
2022-12-16T04:02:53.629Z,25.1
2022-12-16T04:04:01.794Z,25.1
2022-12-16T04:05:10.315Z,28.799999
2022-12-16T04:06:18.694Z,28.799999
2022-12-16T04:07:27.048Z,28.799999
2022-12-16T04:08:35.588Z,27.9
2022-12-16T04:09:43.929Z,27.9
2022-12-16T04:10:52.275Z,27.9
2022-12-16T04:12:00.826Z,29.200001
2022-12-16T04:13:09.205Z,29.200001
2022-12-16T04:14:17.548Z,29.200001
2022-12-16T04:15:26.107Z,28.299999
2022-12-16T04:16:34.445Z,28.299999
2022-12-16T04:17:42.813Z,28.299999
2022-12-16T04:18:51.379Z,29.1
2022-12-16T04:19:59.734Z,29.1
2022-12-16T04:21:08.070Z,29.1
2022-12-16T04:22:16.631Z,29
2022-12-16T04:23:25.016Z,29
2022-12-16T04:24:33.345Z,29
2022-12-16T04:25:41.901Z,31
2022-12-16T04:26:50.245Z,31
2022-12-16T04:27:58.654Z,31
2022-12-16T04:29:07.157Z,36.400002
2022-12-16T04:30:15.512Z,36.400002
2022-12-16T04:31:23.877Z,36.400002
2022-12-16T04:32:32.415Z,36.299999
2022-12-16T04:33:40.750Z,36.299999
2022-12-16T04:34:49.101Z,36.299999
2022-12-16T04:35:57.777Z,35.900002
2022-12-16T04:37:06.198Z,35.900002
2022-12-16T04:38:14.556Z,35.900002
2022-12-16T04:39:23.143Z,36.200001
2022-12-16T04:40:31.464Z,36.200001
2022-12-16T04:41:40.222Z,36.200001
2022-12-16T04:42:48.781Z,38.099998
2022-12-16T04:43:57.141Z,38.099998
2022-12-16T04:45:05.499Z,38.099998
2022-12-16T04:46:14.081Z,36.900002
2022-12-16T04:47:22.413Z,36.900002
2022-12-16T04:48:30.766Z,36.900002
2022-12-16T04:49:39.322Z,36.900002
2022-12-16T04:50:47.679Z,36.900002
2022-12-16T04:51:56.023Z,36.900002
2022-12-16T04:53:04.597Z,32.900002
2022-12-16T04:54:12.964Z,32.900002
2022-12-16T04:55:21.403Z,32.900002
2022-12-16T04:56:29.909Z,32.599998
2022-12-16T04:57:38.263Z,32.599998
2022-12-16T04:58:46.611Z,32.599998
2022-12-16T04:59:55.157Z,29.1
2022-12-16T05:01:03.497Z,29.1
2022-12-16T05:02:11.914Z,29.1
2022-12-16T05:03:20.462Z,31.6
2022-12-16T05:04:28.763Z,31.6
2022-12-16T05:05:37.112Z,31.6
2022-12-16T05:06:45.693Z,48.5
2022-12-16T05:07:54.060Z,48.5
2022-12-16T05:09:02.402Z,48.5
2022-12-16T05:10:10.954Z,52
2022-12-16T05:11:19.322Z,52
2022-12-16T05:12:27.645Z,52
2022-12-16T05:13:36.360Z,79.900002
2022-12-16T05:14:44.561Z,79.900002
2022-12-16T05:15:53.008Z,79.900002
2022-12-16T05:17:01.476Z,40.099998
2022-12-16T05:18:09.839Z,40.099998
2022-12-16T05:19:18.219Z,40.099998
2022-12-16T05:20:26.801Z,73.099998
2022-12-16T05:21:35.160Z,73.099998
2022-12-16T05:22:43.494Z,73.099998
2022-12-16T05:23:52.058Z,79.699997
2022-12-16T05:25:00.401Z,79.699997
2022-12-16T05:26:08.746Z,79.699997
2022-12-16T05:27:17.319Z,50.099998
2022-12-16T05:28:25.666Z,50.099998
2022-12-16T05:29:33.989Z,50.099998
2022-12-16T05:30:42.573Z,43.799999
2022-12-16T05:31:50.912Z,43.799999
2022-12-16T05:32:59.280Z,43.799999
2022-12-16T05:34:07.881Z,41.099998
2022-12-16T05:35:16.176Z,41.099998
2022-12-16T05:36:24.518Z,41.099998
2022-12-16T05:37:33.101Z,49
2022-12-16T05:38:41.453Z,49
2022-12-16T05:39:49.808Z,49
2022-12-16T05:40:58.358Z,38.200001
2022-12-16T05:42:06.700Z,38.200001
2022-12-16T05:43:16.967Z,38.200001
2022-12-16T05:44:23.612Z,37.799999
2022-12-16T05:45:31.962Z,37.799999
2022-12-16T05:46:40.360Z,37.799999
2022-12-16T05:47:48.847Z,35.200001
2022-12-16T05:48:57.181Z,35.200001
2022-12-16T05:50:05.522Z,35.200001
2022-12-16T05:51:14.064Z,37.5
2022-12-16T05:52:22.402Z,37.5
2022-12-16T05:53:30.986Z,37.5
2022-12-16T05:54:39.289Z,52.900002
2022-12-16T05:55:47.628Z,52.900002
2022-12-16T05:56:55.976Z,52.900002
2022-12-16T05:58:04.516Z,43.099998
2022-12-16T05:59:12.881Z,43.099998
2022-12-16T06:00:21.201Z,43.099998
2022-12-16T06:01:29.944Z,41
2022-12-16T06:02:38.322Z,41
2022-12-16T06:03:46.493Z,41
2022-12-16T06:04:55.005Z,38.599998
2022-12-16T06:06:03.331Z,38.599998
2022-12-16T06:07:11.710Z,38.599998
2022-12-16T06:08:20.268Z,36
2022-12-16T06:09:28.607Z,36
2022-12-16T06:10:36.938Z,36
2022-12-16T06:11:45.521Z,39.299999
2022-12-16T06:12:53.878Z,39.299999
2022-12-16T06:14:02.224Z,39.299999
2022-12-16T06:15:10.855Z,38.200001
2022-12-16T06:16:19.303Z,38.200001
2022-12-16T06:17:27.558Z,38.200001
2022-12-16T06:18:36.125Z,40.299999
2022-12-16T06:19:44.514Z,40.299999
2022-12-16T06:20:52.859Z,40.299999
2022-12-16T06:22:01.424Z,39.099998
2022-12-16T06:23:09.812Z,39.099998
2022-12-16T06:24:18.164Z,39.099998
2022-12-16T06:25:26.705Z,38.700001
2022-12-16T06:26:35.043Z,38.700001
2022-12-16T06:27:43.385Z,38.700001
2022-12-16T06:28:51.937Z,40.700001
2022-12-16T06:30:00.272Z,40.700001
2022-12-16T06:31:08.669Z,40.700001
2022-12-16T06:32:17.169Z,37.700001
2022-12-16T06:33:25.509Z,37.700001
2022-12-16T06:34:33.845Z,37.700001
2022-12-16T06:35:42.394Z,48.5
2022-12-16T06:36:50.727Z,48.5
2022-12-16T06:37:59.080Z,48.5
2022-12-16T06:39:07.634Z,38.599998
2022-12-16T06:40:15.984Z,38.599998
2022-12-16T06:41:24.341Z,38.599998
2022-12-16T06:42:32.914Z,38.799999
2022-12-16T06:43:41.257Z,38.799999
2022-12-16T06:44:49.603Z,38.799999
2022-12-16T06:45:58.196Z,37.599998
2022-12-16T06:47:06.640Z,37.599998
2022-12-16T06:48:14.842Z,37.599998
2022-12-16T06:49:23.428Z,38.599998
2022-12-16T06:50:31.755Z,38.599998
2022-12-16T06:51:40.083Z,38.599998
2022-12-16T06:52:48.666Z,39.700001
2022-12-16T06:53:56.977Z,39.700001
2022-12-16T06:55:05.320Z,39.700001
2022-12-16T06:56:13.888Z,42.200001
2022-12-16T06:57:22.222Z,42.200001
2022-12-16T06:58:30.581Z,42.200001
2022-12-16T06:59:39.118Z,40.5
2022-12-16T07:00:47.494Z,40.5
2022-12-16T07:01:55.886Z,40.5
2022-12-16T07:03:04.705Z,43.799999
2022-12-16T07:04:12.704Z,43.799999
2022-12-16T07:05:21.028Z,43.799999
2022-12-16T07:06:29.567Z,49
2022-12-16T07:07:37.919Z,49
2022-12-16T07:08:46.270Z,49
2022-12-16T07:09:54.824Z,43.599998
2022-12-16T07:11:15.535Z,43.599998
2022-12-16T07:12:11.497Z,43.599998
2022-12-16T07:13:20.065Z,43.5
2022-12-16T07:14:28.404Z,43.5
2022-12-16T07:15:36.731Z,43.5
2022-12-16T07:16:45.304Z,53.099998
2022-12-16T07:17:53.615Z,53.099998
2022-12-16T07:19:01.983Z,53.099998
2022-12-16T07:20:10.495Z,51.5
2022-12-16T07:21:18.837Z,51.5
2022-12-16T07:22:27.218Z,51.5
2022-12-16T07:23:35.910Z,51.599998
2022-12-16T07:24:44.127Z,51.599998
2022-12-16T07:25:52.470Z,51.599998
2022-12-16T07:27:01.016Z,45.299999
2022-12-16T07:28:13.773Z,45.299999
2022-12-16T07:29:17.705Z,45.299999
2022-12-16T07:30:26.267Z,53.5
2022-12-16T07:31:34.629Z,53.5
2022-12-16T07:32:42.953Z,53.5
2022-12-16T07:33:51.495Z,73.800003
2022-12-16T07:34:59.861Z,73.800003
2022-12-16T07:36:08.156Z,73.800003
2022-12-16T07:37:16.705Z,66.400002
2022-12-16T07:38:25.074Z,66.400002
2022-12-16T07:39:33.422Z,66.400002
2022-12-16T07:40:41.974Z,58.700001
2022-12-16T07:41:50.313Z,58.700001
2022-12-16T07:42:58.684Z,58.700001
2022-12-16T07:44:07.230Z,36
2022-12-16T07:45:15.564Z,36
2022-12-16T07:46:24.011Z,36
2022-12-16T07:47:32.468Z,38.299999
2022-12-16T07:48:40.823Z,38.299999
2022-12-16T07:49:49.148Z,38.299999
2022-12-16T07:50:57.783Z,37.200001
2022-12-16T07:52:06.025Z,37.200001
2022-12-16T07:53:14.364Z,37.200001
2022-12-16T07:54:22.911Z,33.599998
2022-12-16T07:55:31.243Z,33.599998
2022-12-16T07:56:39.575Z,33.599998
2022-12-16T07:57:48.143Z,35.099998
2022-12-16T07:58:56.488Z,35.099998
2022-12-16T08:00:04.824Z,35.099998
2022-12-16T08:01:13.446Z,37.299999
2022-12-16T08:02:21.858Z,37.299999
2022-12-16T08:03:30.303Z,37.299999
2022-12-16T08:04:38.608Z,39.5
2022-12-16T08:05:46.945Z,39.5
2022-12-16T08:06:55.444Z,39.5
2022-12-16T08:08:03.831Z,38
2022-12-16T08:09:12.175Z,38
2022-12-16T08:10:20.534Z,38
2022-12-16T08:11:29.084Z,38.200001
2022-12-16T08:12:37.453Z,38.200001
2022-12-16T08:13:45.777Z,38.200001
2022-12-16T08:14:54.328Z,39.599998
2022-12-16T08:16:02.666Z,39.599998
2022-12-16T08:17:11.075Z,39.599998
2022-12-16T08:18:19.560Z,59
2022-12-16T08:19:27.909Z,59
2022-12-16T08:20:36.255Z,59
2022-12-16T08:21:44.803Z,78.5
2022-12-16T08:22:53.169Z,78.5
2022-12-16T08:24:01.477Z,78.5
2022-12-16T08:25:10.028Z,61.900002
2022-12-16T08:26:18.351Z,61.900002
2022-12-16T08:27:26.677Z,61.900002
2022-12-16T08:28:35.239Z,57.400002
2022-12-16T08:29:45.122Z,57.400002
2022-12-16T08:30:51.910Z,57.400002
2022-12-16T08:32:00.443Z,51.400002
2022-12-16T08:33:18.224Z,51.400002
2022-12-16T08:34:17.136Z,51.400002
2022-12-16T08:35:25.680Z,53.099998
2022-12-16T08:36:34.010Z,53.099998
2022-12-16T08:37:42.360Z,53.099998
2022-12-16T08:38:50.923Z,48.900002
2022-12-16T08:40:17.928Z,48.900002
2022-12-16T08:41:07.585Z,48.900002
2022-12-16T08:42:16.117Z,49.700001
2022-12-16T08:43:24.478Z,49.700001
2022-12-16T08:44:32.828Z,49.700001
2022-12-16T08:45:41.437Z,44.400002
2022-12-16T08:46:49.718Z,44.400002
2022-12-16T08:47:58.062Z,44.400002
2022-12-16T08:49:06.602Z,42.200001
2022-12-16T08:50:14.969Z,42.200001
2022-12-16T08:51:23.311Z,42.200001
2022-12-16T08:52:31.860Z,50.5
2022-12-16T08:53:40.223Z,50.5
2022-12-16T08:54:48.634Z,50.5
2022-12-16T08:55:57.103Z,49.799999
2022-12-16T08:57:05.456Z,49.799999
2022-12-16T08:58:13.856Z,49.799999
2022-12-16T08:59:22.336Z,58.099998
2022-12-16T09:00:30.677Z,58.099998
2022-12-16T09:01:39.152Z,58.099998
2022-12-16T09:02:47.912Z,74.300003
2022-12-16T09:03:56.028Z,74.300003
2022-12-16T09:05:04.230Z,74.300003
2022-12-16T09:06:12.779Z,78.900002
2022-12-16T09:07:21.110Z,78.900002
2022-12-16T09:08:29.469Z,78.900002
2022-12-16T09:09:38.011Z,53.599998
2022-12-16T09:10:46.358Z,53.599998
2022-12-16T09:11:54.668Z,53.599998
2022-12-16T09:13:03.240Z,66.400002
2022-12-16T09:14:11.573Z,66.400002
2022-12-16T09:15:19.912Z,66.400002
2022-12-16T09:16:28.549Z,71.599998
2022-12-16T09:17:36.786Z,71.599998
2022-12-16T09:18:45.134Z,71.599998
2022-12-16T09:19:53.976Z,59.5
2022-12-16T09:21:02.026Z,59.5
2022-12-16T09:22:10.365Z,59.5
2022-12-16T09:23:18.929Z,56.900002
2022-12-16T09:24:27.263Z,56.900002
2022-12-16T09:25:35.599Z,56.900002
2022-12-16T09:26:44.370Z,45.599998
2022-12-16T09:27:52.505Z,45.599998
2022-12-16T09:29:00.844Z,45.599998
2022-12-16T09:30:09.395Z,47.900002
2022-12-16T09:31:17.821Z,47.900002
2022-12-16T09:32:26.077Z,47.900002
2022-12-16T09:33:34.957Z,39
2022-12-16T09:34:42.963Z,39
2022-12-16T09:35:51.291Z,39
2022-12-16T09:36:59.843Z,40.900002
2022-12-16T09:38:08.182Z,40.900002
2022-12-16T09:39:16.524Z,40.900002
2022-12-16T09:40:25.098Z,40.299999
2022-12-16T09:41:33.435Z,40.299999
2022-12-16T09:42:41.821Z,40.299999
2022-12-16T09:43:50.331Z,41.099998
2022-12-16T09:44:58.687Z,41.099998
2022-12-16T09:46:07.074Z,41.099998
2022-12-16T09:47:15.557Z,44
2022-12-16T09:48:23.926Z,44
2022-12-16T09:49:32.271Z,44
2022-12-16T09:50:40.826Z,56
2022-12-16T09:51:49.159Z,56
2022-12-16T09:52:57.497Z,56
2022-12-16T09:54:06.062Z,76.199997
2022-12-16T09:55:14.405Z,76.199997
2022-12-16T09:56:22.756Z,76.199997
2022-12-16T09:57:31.300Z,59.799999
2022-12-16T09:58:39.750Z,59.799999
2022-12-16T09:59:47.990Z,59.799999
2022-12-16T10:00:56.544Z,97.5
2022-12-16T10:02:05.007Z,97.5
2022-12-16T10:03:13.340Z,97.5
2022-12-16T10:04:21.866Z,49.099998
2022-12-16T10:05:30.127Z,49.099998
2022-12-16T10:06:38.474Z,49.099998
2022-12-16T10:07:47.023Z,88.599998
2022-12-16T10:08:55.376Z,88.599998
2022-12-16T10:10:03.710Z,88.599998
2022-12-16T10:11:12.246Z,49
2022-12-16T10:12:20.595Z,49
2022-12-16T10:13:28.944Z,49
2022-12-16T10:14:37.520Z,52.900002
2022-12-16T10:15:45.918Z,52.900002
2022-12-16T10:16:54.212Z,52.900002
2022-12-16T10:18:02.906Z,58.700001
2022-12-16T10:19:11.144Z,58.700001
2022-12-16T10:20:19.484Z,58.700001
2022-12-16T10:21:28.028Z,41.700001
2022-12-16T10:22:36.360Z,41.700001
2022-12-16T10:23:44.715Z,41.700001
2022-12-16T10:24:53.259Z,42.799999
2022-12-16T10:26:01.607Z,42.799999
2022-12-16T10:27:09.958Z,42.799999
2022-12-16T10:28:18.509Z,43.400002
2022-12-16T10:29:26.904Z,43.400002
2022-12-16T10:30:35.257Z,43.400002
2022-12-16T10:31:43.850Z,42
2022-12-16T10:32:52.123Z,42
2022-12-16T10:34:00.461Z,42
2022-12-16T10:35:09.017Z,39.200001
2022-12-16T10:36:17.355Z,39.200001
2022-12-16T10:37:25.692Z,39.200001
2022-12-16T10:38:34.251Z,34.5
2022-12-16T10:39:42.581Z,34.5
2022-12-16T10:40:50.924Z,34.5
2022-12-16T10:41:59.467Z,45.299999
2022-12-16T10:43:07.808Z,45.299999
2022-12-16T10:44:16.139Z,45.299999
2022-12-16T10:45:24.694Z,46.5
2022-12-16T10:46:33.154Z,46.5
2022-12-16T10:47:41.411Z,46.5
2022-12-16T10:48:53.759Z,46.700001
2022-12-16T10:49:58.359Z,46.700001
2022-12-16T10:51:06.629Z,46.700001
2022-12-16T10:52:15.192Z,41.200001
2022-12-16T10:53:23.531Z,41.200001
2022-12-16T10:54:31.852Z,41.200001
2022-12-16T10:55:40.398Z,43.299999
2022-12-16T10:56:48.730Z,43.299999
2022-12-16T10:57:57.076Z,43.299999
2022-12-16T10:59:05.621Z,42.200001
2022-12-16T11:00:13.992Z,42.200001
2022-12-16T11:01:22.418Z,42.200001
2022-12-16T11:02:31.153Z,41.599998
2022-12-16T11:03:39.756Z,41.599998
2022-12-16T11:04:47.606Z,41.599998
2022-12-16T11:05:56.178Z,39.700001
2022-12-16T11:07:04.516Z,39.700001
2022-12-16T11:08:12.864Z,39.700001
2022-12-16T11:09:21.421Z,38.700001
2022-12-16T11:10:29.770Z,38.700001
2022-12-16T11:11:38.097Z,38.700001
2022-12-16T11:12:46.658Z,46.099998
2022-12-16T11:13:55.010Z,46.099998
2022-12-16T11:15:27.972Z,46.099998
2022-12-16T11:16:11.912Z,50
2022-12-16T11:17:20.223Z,50
2022-12-16T11:18:28.613Z,50
2022-12-16T11:19:37.141Z,41.200001
2022-12-16T11:20:45.479Z,41.200001
2022-12-16T11:21:53.854Z,41.200001
2022-12-16T11:23:02.416Z,40.299999
2022-12-16T11:24:12.224Z,40.299999
2022-12-16T11:25:20.636Z,40.299999
2022-12-16T11:26:33.232Z,37.5
2022-12-16T11:27:37.556Z,37.5
2022-12-16T11:28:45.918Z,37.5
2022-12-16T11:29:54.475Z,38.299999
2022-12-16T11:31:02.873Z,38.299999
2022-12-16T11:32:11.166Z,38.299999
2022-12-16T11:33:19.739Z,38.299999
2022-12-16T11:34:28.163Z,38.299999
2022-12-16T11:35:36.428Z,38.299999
2022-12-16T11:36:44.987Z,39.099998
2022-12-16T11:37:53.343Z,39.099998
2022-12-16T11:39:01.707Z,39.099998
2022-12-16T11:40:10.262Z,38.900002
2022-12-16T11:41:18.618Z,38.900002
2022-12-16T11:42:26.967Z,38.900002
2022-12-16T11:43:35.973Z,37.200001
2022-12-16T11:44:43.877Z,37.200001
2022-12-16T11:45:52.214Z,37.200001
2022-12-16T11:47:00.836Z,37.400002
2022-12-16T11:48:09.141Z,37.400002
2022-12-16T11:49:22.046Z,37.400002
2022-12-16T11:50:26.160Z,36.5
2022-12-16T11:51:34.388Z,36.5
2022-12-16T11:52:42.752Z,36.5
2022-12-16T11:53:51.315Z,35.5
2022-12-16T11:54:59.649Z,35.5
2022-12-16T11:56:14.129Z,35.5
2022-12-16T11:57:16.564Z,35.799999
2022-12-16T11:58:24.920Z,35.799999
2022-12-16T11:59:33.257Z,35.799999
2022-12-16T12:00:41.808Z,36.599998
2022-12-16T12:01:50.227Z,36.599998
2022-12-16T12:02:58.625Z,36.599998
2022-12-16T12:04:07.131Z,36.799999
2022-12-16T12:05:15.484Z,36.799999
2022-12-16T12:06:23.850Z,36.799999
2022-12-16T12:07:32.428Z,35.799999
2022-12-16T12:08:40.770Z,35.799999
2022-12-16T12:09:49.152Z,35.799999
2022-12-16T12:10:57.688Z,36.599998
2022-12-16T12:12:06.034Z,36.599998
2022-12-16T12:13:14.415Z,36.599998
2022-12-16T12:14:29.433Z,36.400002
2022-12-16T12:15:37.793Z,36.400002
2022-12-16T12:16:46.181Z,36.400002
2022-12-16T12:17:54.703Z,38.200001
2022-12-16T12:19:03.048Z,38.200001
2022-12-16T12:20:11.419Z,38.200001
2022-12-16T12:21:19.960Z,37.599998
2022-12-16T12:22:28.374Z,37.599998
2022-12-16T12:23:36.897Z,37.599998
2022-12-16T12:24:45.241Z,38.299999
2022-12-16T12:25:53.586Z,38.299999
2022-12-16T12:27:01.935Z,38.299999
2022-12-16T12:28:10.514Z,43.400002
2022-12-16T12:29:18.859Z,43.400002
2022-12-16T12:30:27.204Z,43.400002
2022-12-16T12:31:35.819Z,42.700001
2022-12-16T12:32:44.156Z,42.700001
2022-12-16T12:33:52.507Z,42.700001
2022-12-16T12:35:01.060Z,45.299999
2022-12-16T12:36:09.429Z,45.299999
2022-12-16T12:37:17.763Z,45.299999
2022-12-16T12:38:26.355Z,43.700001
2022-12-16T12:39:34.681Z,43.700001
2022-12-16T12:40:43.043Z,43.700001
2022-12-16T12:41:51.600Z,45.599998
2022-12-16T12:42:59.961Z,45.599998
2022-12-16T12:44:08.316Z,45.599998
2022-12-16T12:45:16.866Z,47.799999
2022-12-16T12:46:25.361Z,47.799999
2022-12-16T12:47:33.577Z,47.799999
2022-12-16T12:48:42.143Z,50.299999
2022-12-16T12:49:50.512Z,50.299999
2022-12-16T12:50:58.837Z,50.299999
2022-12-16T12:52:07.408Z,61
2022-12-16T12:53:15.758Z,61
2022-12-16T12:54:26.621Z,61
2022-12-16T12:55:32.683Z,108.09999
2022-12-16T12:56:41.030Z,108.09999
2022-12-16T12:57:49.398Z,108.09999
2022-12-16T12:58:57.961Z,117.9
2022-12-16T13:00:06.324Z,117.9
2022-12-16T13:01:14.743Z,117.9
2022-12-16T13:02:23.303Z,50
2022-12-16T13:03:32.064Z,50
2022-12-16T13:04:40.040Z,50
2022-12-16T13:05:48.628Z,46.400002
2022-12-16T13:06:56.979Z,46.400002
2022-12-16T13:08:05.341Z,46.400002
2022-12-16T13:09:13.893Z,43
2022-12-16T13:10:22.387Z,43
2022-12-16T13:11:34.821Z,43
2022-12-16T13:12:39.223Z,44.299999
2022-12-16T13:13:47.573Z,44.299999
2022-12-16T13:14:55.993Z,44.299999
2022-12-16T13:16:04.610Z,42.299999
2022-12-16T13:17:12.902Z,42.299999
2022-12-16T13:18:21.294Z,42.299999
2022-12-16T13:19:29.845Z,43.5
2022-12-16T13:20:38.209Z,43.5
2022-12-16T13:21:46.569Z,43.5
2022-12-16T13:22:55.169Z,42.200001
2022-12-16T13:24:03.652Z,42.200001
2022-12-16T13:25:11.894Z,42.200001
2022-12-16T13:26:20.495Z,47.299999
2022-12-16T13:27:28.865Z,47.299999
2022-12-16T13:28:37.224Z,47.299999
2022-12-16T13:29:45.796Z,40.400002
2022-12-16T13:30:54.142Z,40.400002
2022-12-16T13:32:02.559Z,40.400002
2022-12-16T13:33:11.089Z,43.799999
2022-12-16T13:34:19.511Z,43.799999
2022-12-16T13:35:27.874Z,43.799999
2022-12-16T13:36:36.431Z,40.599998
2022-12-16T13:37:44.784Z,40.599998
2022-12-16T13:38:53.185Z,40.599998
2022-12-16T13:40:01.752Z,41.099998
2022-12-16T13:41:10.118Z,41.099998
2022-12-16T13:42:18.563Z,41.099998
2022-12-16T13:43:27.066Z,39.900002
2022-12-16T13:44:35.473Z,39.900002
2022-12-16T13:45:43.893Z,39.900002
2022-12-16T13:46:52.375Z,43.099998
2022-12-16T13:48:00.748Z,43.099998
2022-12-16T13:49:09.108Z,43.099998
2022-12-16T13:50:17.656Z,42.5
2022-12-16T13:51:26.016Z,42.5